Terminal Aerodrome Forecast
Issued by NWS

Home | Current Version | Previous Version | Graphics & Text | Print | Product List | Glossary On
Versions: 1 2 3 4 5 6 7 8 9 10 11 12 13 14 15 16 17 18 19
672
FTUS43 KABR 111132
TAFATY
TAF
KATY 111132Z 1112/1212 30021G30KT P6SM VCSH BKN015 OVC030
      TEMPO 1112/1114 2SM -SN BR OVC015
     FM111700 34026G36KT P6SM OVC015
     FM120000 33017G24KT P6SM SCT025
     FM120400 33010KT P6SM SCT250
     FM120900 30007KT P6SM BKN025=

USA.gov is the U.S. government's official web portal to all federal, state and local government web resources and services.